Time,TemperatureF,DewpointF,PressureIn,WindDirection,WindDirectionDegrees,WindSpeedMPH,WindSpeedGustMPH,Humidity,HourlyPrecipIn,Conditions,Clouds,dailyrainin,SoftwareType,DateUTC
2013-04-28 00:06:00,56.7,43.0,30.09,NW,323,2.0,6.3,60,0.00,,,-99.99,FreeWX 2.04,2013-04-28 04:06:00,
2013-04-28 00:16:00,56.7,43.7,30.09,NNW,346,2.0,6.9,62,0.00,,,-99.99,FreeWX 2.04,2013-04-28 04:16:00,
2013-04-28 00:26:00,56.5,44.1,30.09,NNW,341,2.0,7.4,63,0.00,,,-99.99,FreeWX 2.04,2013-04-28 04:26:00,
2013-04-28 00:36:00,56.5,44.4,30.09,NNW,330,3.0,6.7,64,0.00,,,-99.99,FreeWX 2.04,2013-04-28 04:36:00,
2013-04-28 00:46:00,56.3,45.1,30.09,NNW,341,2.0,6.3,66,0.00,,,-99.99,FreeWX 2.04,2013-04-28 04:46:00,
2013-04-28 00:56:00,56.3,45.5,30.09,NW,310,3.0,8.7,67,0.00,,,-99.99,FreeWX 2.04,2013-04-28 04:56:00,
2013-04-28 01:06:00,56.1,46.0,30.06,NW,304,4.0,9.6,69,0.00,,,-99.99,FreeWX 2.04,2013-04-28 05:06:00,
2013-04-28 01:16:00,56.1,46.4,30.06,NW,326,5.0,11.0,70,0.00,,,-99.99,FreeWX 2.04,2013-04-28 05:16:00,
2013-04-28 01:27:00,56.1,46.4,30.06,NW,323,5.0,9.6,70,0.00,,,-99.99,FreeWX 2.04,2013-04-28 05:27:00,
2013-04-28 01:37:00,56.1,46.4,30.06,NNW,328,4.0,8.7,70,0.00,,,-99.99,FreeWX 2.04,2013-04-28 05:37:00,
2013-04-28 01:47:00,56.1,46.8,30.06,NW,318,3.0,6.9,71,0.00,,,-99.99,FreeWX 2.04,2013-04-28 05:47:00,
2013-04-28 01:57:00,55.9,46.8,30.06,NNW,330,4.0,6.3,71,0.00,,,-99.99,FreeWX 2.04,2013-04-28 05:57:00,
2013-04-28 02:07:00,56.1,46.8,30.03,NNW,333,4.0,7.8,71,0.00,,,-99.99,FreeWX 2.04,2013-04-28 06:07:00,
2013-04-28 02:17:00,56.1,46.4,30.03,NNW,328,4.0,7.8,70,0.00,,,-99.99,FreeWX 2.04,2013-04-28 06:17:00,
2013-04-28 02:27:00,56.1,46.4,30.03,NNW,335,4.0,10.1,70,0.00,,,-99.99,FreeWX 2.04,2013-04-28 06:27:00,
2013-04-28 02:37:00,55.9,46.2,30.03,NNW,329,4.0,8.7,70,0.04,,,-99.99,FreeWX 2.04,2013-04-28 06:37:00,
2013-04-28 02:47:00,55.9,46.2,30.03,NNW,331,4.0,7.8,70,0.04,,,-99.99,FreeWX 2.04,2013-04-28 06:47:00,
2013-04-28 02:57:00,55.9,46.8,30.03,NNW,339,4.0,6.7,71,0.04,,,-99.99,FreeWX 2.04,2013-04-28 06:57:00,
2013-04-28 03:07:00,55.8,46.6,30.03,NNW,329,3.0,8.7,71,0.04,,,-99.99,FreeWX 2.04,2013-04-28 07:07:00,
2013-04-28 03:17:00,55.8,46.6,30.00,NNW,334,3.0,9.2,71,0.08,,,-99.99,FreeWX 2.04,2013-04-28 07:17:00,
2013-04-28 03:27:00,55.6,46.8,30.00,NNW,332,3.0,8.3,72,0.08,,,-99.99,FreeWX 2.04,2013-04-28 07:27:00,
2013-04-28 03:37:00,55.6,46.8,30.00,NW,320,5.0,9.6,72,0.08,,,-99.99,FreeWX 2.04,2013-04-28 07:37:00,
2013-04-28 03:47:00,55.4,46.9,30.00,NW,322,4.0,7.8,73,0.12,,,-99.99,FreeWX 2.04,2013-04-28 07:47:00,
2013-04-28 03:57:00,55.4,47.3,30.00,NW,321,5.0,10.5,74,0.12,,,-99.99,FreeWX 2.04,2013-04-28 07:57:00,
2013-04-28 04:07:00,55.4,47.3,30.00,NNW,329,4.0,8.7,74,0.12,,,-99.99,FreeWX 2.04,2013-04-28 08:07:00,
2013-04-28 04:17:00,55.4,47.7,30.00,NNW,330,5.0,10.5,75,0.12,,,-99.99,FreeWX 2.04,2013-04-28 08:17:00,
2013-04-28 04:27:00,55.4,47.7,30.00,NNW,328,5.0,8.3,75,0.12,,,-99.99,FreeWX 2.04,2013-04-28 08:27:00,
2013-04-28 04:37:00,55.6,47.8,30.00,NW,325,5.0,10.1,75,0.12,,,-99.99,FreeWX 2.04,2013-04-28 08:37:00,
2013-04-28 04:47:00,55.6,47.8,29.97,NW,323,5.0,9.6,75,0.08,,,-99.99,FreeWX 2.04,2013-04-28 08:47:00,
2013-04-28 04:57:00,55.6,47.8,29.97,NW,316,6.0,11.6,75,0.12,,,-99.99,FreeWX 2.04,2013-04-28 08:57:00,
2013-04-28 05:07:00,55.4,47.7,29.97,NW,317,6.0,11.2,75,0.12,,,-99.99,FreeWX 2.04,2013-04-28 09:07:00,
2013-04-28 05:17:00,55.4,47.3,29.94,NW,316,7.0,17.7,74,0.08,,,-99.99,FreeWX 2.04,2013-04-28 09:17:00,
2013-04-28 05:27:00,55.6,47.1,29.94,NNW,328,7.0,11.0,73,0.08,,,-99.99,FreeWX 2.04,2013-04-28 09:27:00,
2013-04-28 05:37:00,55.8,47.3,29.94,NNW,333,6.0,14.8,73,0.04,,,-99.99,FreeWX 2.04,2013-04-28 09:37:00,
2013-04-28 05:47:00,55.8,46.9,29.94,NNW,336,5.0,10.5,72,0.04,,,-99.99,FreeWX 2.04,2013-04-28 09:47:00,
2013-04-28 05:57:00,55.8,46.6,29.94,NNW,335,5.0,9.6,71,0.00,,,-99.99,FreeWX 2.04,2013-04-28 09:57:00,
2013-04-28 06:07:00,55.8,46.6,29.94,NNW,340,4.0,6.7,71,0.00,,,-99.99,FreeWX 2.04,2013-04-28 10:07:00,
2013-04-28 06:17:00,55.8,46.6,29.94,NW,325,3.0,6.9,71,0.00,,,-99.99,FreeWX 2.04,2013-04-28 10:17:00,
2013-04-28 06:27:00,55.8,46.6,29.94,NE,51,2.0,6.3,71,0.00,,,-99.99,FreeWX 2.04,2013-04-28 10:27:00,
2013-04-28 06:37:00,55.8,46.6,29.97,NW,318,2.0,6.3,71,0.00,,,-99.99,FreeWX 2.04,2013-04-28 10:37:00,
2013-04-28 06:47:00,55.8,46.6,29.97,NNW,346,2.0,6.7,71,0.00,,,-99.99,FreeWX 2.04,2013-04-28 10:47:00,
2013-04-28 06:57:00,55.9,46.8,29.97,NNW,341,3.0,6.9,71,0.00,,,-99.99,FreeWX 2.04,2013-04-28 10:57:00,
2013-04-28 07:07:00,55.9,46.8,29.97,NNW,336,3.0,6.3,71,0.00,,,-99.99,FreeWX 2.04,2013-04-28 11:07:00,
2013-04-28 07:17:00,55.9,46.8,29.97,NNW,330,3.0,7.4,71,0.00,,,-99.99,FreeWX 2.04,2013-04-28 11:17:00,
2013-04-28 07:27:00,55.8,46.6,29.97,NNW,331,3.0,5.4,71,0.00,,,-99.99,FreeWX 2.04,2013-04-28 11:27:00,
2013-04-28 07:37:00,55.9,46.8,29.97,NNW,337,2.0,5.4,71,0.00,,,-99.99,FreeWX 2.04,2013-04-28 11:37:00,
2013-04-28 07:47:00,56.1,46.8,29.97,NNW,341,3.0,6.7,71,0.00,,,-99.99,FreeWX 2.04,2013-04-28 11:47:00,
2013-04-28 07:57:00,56.5,47.1,29.97,NNW,342,4.0,5.8,71,0.00,,,-99.99,FreeWX 2.04,2013-04-28 11:57:00,
2013-04-28 08:07:00,56.7,47.3,29.97,NNW,341,2.0,6.3,71,0.00,,,-99.99,FreeWX 2.04,2013-04-28 12:07:00,
2013-04-28 08:17:00,56.7,46.9,29.97,NNW,340,2.0,6.7,70,0.00,,,-99.99,FreeWX 2.04,2013-04-28 12:17:00,
2013-04-28 08:27:00,56.7,46.2,29.97,NNW,336,4.0,8.7,68,0.00,,,-99.99,FreeWX 2.04,2013-04-28 12:27:00,
2013-04-28 08:37:00,56.8,46.4,29.97,NNW,330,2.0,5.8,68,0.00,,,-99.99,FreeWX 2.04,2013-04-28 12:37:00,
2013-04-28 08:47:00,57.2,45.9,29.97,NNW,336,3.0,8.3,66,0.00,,,-99.99,FreeWX 2.04,2013-04-28 12:47:00,
2013-04-28 08:57:00,57.2,44.8,29.97,NNW,341,4.0,7.8,63,0.00,,,-99.99,FreeWX 2.04,2013-04-28 12:57:00,
2013-04-28 09:07:00,57.2,43.9,29.97,NNW,339,4.0,9.6,61,0.00,,,-99.99,FreeWX 2.04,2013-04-28 13:07:00,
2013-04-28 09:17:00,57.7,44.4,29.97,NNW,340,4.0,9.2,61,0.00,,,-99.99,FreeWX 2.04,2013-04-28 13:17:00,
2013-04-28 09:27:00,57.9,42.8,29.97,NNW,337,5.0,10.1,57,0.00,,,-99.99,FreeWX 2.04,2013-04-28 13:27:00,
2013-04-28 09:37:00,57.9,42.8,29.97,NNW,341,4.0,10.5,57,0.00,,,-99.99,FreeWX 2.04,2013-04-28 13:37:00,
2013-04-28 09:47:00,58.5,41.9,29.94,NNW,337,4.0,10.1,54,0.00,,,-99.99,FreeWX 2.04,2013-04-28 13:47:00,
2013-04-28 09:57:00,58.8,41.7,29.94,NNW,337,4.0,10.1,53,0.00,,,-99.99,FreeWX 2.04,2013-04-28 13:57:00,
2013-04-28 10:07:00,59.2,41.5,29.97,NNW,338,5.0,9.2,52,0.00,,,-99.99,FreeWX 2.04,2013-04-28 14:07:00,
2013-04-28 10:17:00,59.7,41.5,29.97,NNW,337,4.0,10.1,51,0.00,,,-99.99,FreeWX 2.04,2013-04-28 14:17:00,
2013-04-28 10:27:00,60.8,41.5,29.97,NNW,342,4.0,10.1,49,0.00,,,-99.99,FreeWX 2.04,2013-04-28 14:27:00,
2013-04-28 10:37:00,62.2,39.4,29.97,NNW,343,6.0,13.0,43,0.00,,,-99.99,FreeWX 2.04,2013-04-28 14:37:00,
2013-04-28 10:47:00,63.7,38.8,29.97,NNW,341,5.0,11.0,40,0.00,,,-99.99,FreeWX 2.04,2013-04-28 14:47:00,
2013-04-28 10:57:00,62.6,36.7,29.97,North,350,4.0,9.6,38,0.00,,,-99.99,FreeWX 2.04,2013-04-28 14:57:00,
2013-04-28 11:07:00,62.4,37.2,29.97,NNW,340,4.0,12.5,39,0.00,,,-99.99,FreeWX 2.04,2013-04-28 15:07:00,
2013-04-28 11:17:00,63.1,38.5,29.97,NNW,337,4.0,11.2,40,0.00,,,-99.99,FreeWX 2.04,2013-04-28 15:17:00,
2013-04-28 11:27:00,63.9,37.0,29.97,NNW,341,4.0,11.0,37,0.00,,,-99.99,FreeWX 2.04,2013-04-28 15:27:00,
2013-04-28 11:37:00,63.9,36.3,29.97,NNW,341,6.0,11.6,36,0.00,,,-99.99,FreeWX 2.04,2013-04-28 15:37:00,
2013-04-28 11:47:00,64.2,37.4,29.97,North,350,3.0,7.8,37,0.00,,,-99.99,FreeWX 2.04,2013-04-28 15:47:00,
2013-04-28 11:57:00,64.6,37.0,29.97,North,352,3.0,10.5,36,0.00,,,-99.99,FreeWX 2.04,2013-04-28 15:57:00,
2013-04-28 12:07:00,65.3,35.4,29.94,NNW,346,4.0,11.0,33,0.00,,,-99.99,FreeWX 2.04,2013-04-28 16:07:00,
2013-04-28 12:17:00,65.8,36.0,29.94,North,349,5.0,12.1,33,0.00,,,-99.99,FreeWX 2.04,2013-04-28 16:17:00,
2013-04-28 12:27:00,66.6,34.2,29.94,NNW,342,6.0,13.0,30,0.00,,,-99.99,FreeWX 2.04,2013-04-28 16:27:00,
2013-04-28 12:37:00,66.9,32.7,29.94,NNW,342,6.0,12.5,28,0.00,,,-99.99,FreeWX 2.04,2013-04-28 16:37:00,
2013-04-28 12:47:00,66.2,33.8,29.94,North,349,6.0,12.5,30,0.00,,,-99.99,FreeWX 2.04,2013-04-28 16:47:00,
2013-04-28 12:57:00,66.0,34.5,29.94,NNW,340,5.0,14.3,31,0.00,,,-99.99,FreeWX 2.04,2013-04-28 16:57:00,
2013-04-28 13:07:00,66.4,33.1,29.94,North,354,5.0,10.1,29,0.00,,,-99.99,FreeWX 2.04,2013-04-28 17:07:00,
2013-04-28 13:17:00,66.4,33.1,29.91,North,349,5.0,11.2,29,0.00,,,-99.99,FreeWX 2.04,2013-04-28 17:17:00,
2013-04-28 13:27:00,66.6,33.3,29.91,NNW,345,5.0,12.5,29,0.00,,,-99.99,FreeWX 2.04,2013-04-28 17:27:00,
2013-04-28 13:37:00,67.1,31.1,29.91,NNW,347,4.0,9.6,26,0.00,,,-99.99,FreeWX 2.04,2013-04-28 17:37:00,
2013-04-28 13:47:00,67.5,32.4,29.91,North,350,4.0,11.6,27,0.00,,,-99.99,FreeWX 2.04,2013-04-28 17:47:00,
2013-04-28 13:57:00,70.2,31.6,29.91,NNW,343,6.0,11.2,24,0.00,,,-99.99,FreeWX 2.04,2013-04-28 17:57:00,
2013-04-28 14:07:00,70.7,30.0,29.91,North,350,5.0,13.9,22,0.00,,,-99.99,FreeWX 2.04,2013-04-28 18:07:00,
2013-04-28 14:17:00,68.9,29.7,29.91,North,349,6.0,11.2,23,0.00,,,-99.99,FreeWX 2.04,2013-04-28 18:17:00,
2013-04-28 14:27:00,68.9,29.7,29.91,NNW,348,5.0,10.5,23,0.00,,,-99.99,FreeWX 2.04,2013-04-28 18:27:00,
2013-04-28 14:37:00,68.4,29.1,29.91,North,352,4.0,10.1,23,0.00,,,-99.99,FreeWX 2.04,2013-04-28 18:37:00,
2013-04-28 14:47:00,67.5,29.5,29.91,North,351,4.0,7.8,24,0.00,,,-99.99,FreeWX 2.04,2013-04-28 18:47:00,
2013-04-28 14:57:00,68.0,30.9,29.91,North,349,3.0,8.7,25,0.00,,,-99.99,FreeWX 2.04,2013-04-28 18:57:00,
2013-04-28 15:07:00,68.5,30.4,29.91,NNW,347,5.0,15.2,24,0.00,,,-99.99,FreeWX 2.04,2013-04-28 19:07:00,
2013-04-28 15:17:00,69.1,29.7,29.91,North,351,5.0,10.5,23,0.00,,,-99.99,FreeWX 2.04,2013-04-28 19:17:00,
2013-04-28 15:27:00,69.4,30.0,29.91,North,352,6.0,11.2,23,0.00,,,-99.99,FreeWX 2.04,2013-04-28 19:27:00,
2013-04-28 15:37:00,69.8,30.4,29.91,North,349,5.0,11.6,23,0.00,,,-99.99,FreeWX 2.04,2013-04-28 19:37:00,
2013-04-28 15:47:00,69.6,30.2,29.88,North,355,4.0,10.1,23,0.00,,,-99.99,FreeWX 2.04,2013-04-28 19:47:00,
2013-04-28 15:57:00,70.0,30.6,29.88,NNW,347,5.0,13.4,23,0.00,,,-99.99,FreeWX 2.04,2013-04-28 19:57:00,
2013-04-28 16:07:00,70.2,30.6,29.88,North,350,5.0,11.6,23,0.00,,,-99.99,FreeWX 2.04,2013-04-28 20:07:00,
2013-04-28 16:17:00,70.0,30.6,29.88,NNW,348,5.0,10.5,23,0.00,,,-99.99,FreeWX 2.04,2013-04-28 20:17:00,
2013-04-28 16:27:00,69.8,30.4,29.88,NNW,346,4.0,9.2,23,0.00,,,-99.99,FreeWX 2.04,2013-04-28 20:27:00,
2013-04-28 16:48:00,69.3,29.8,29.85,North,357,4.0,11.6,23,0.00,,,-99.99,FreeWX 2.04,2013-04-28 20:48:00,
2013-04-28 16:58:00,69.1,30.7,29.85,NNW,346,5.0,9.2,24,0.00,,,-99.99,FreeWX 2.04,2013-04-28 20:58:00,
2013-04-28 17:08:00,68.7,30.4,29.85,NNW,344,5.0,11.0,24,0.00,,,-99.99,FreeWX 2.04,2013-04-28 21:08:00,
2013-04-28 17:18:00,68.5,30.4,29.85,NNW,346,6.0,14.3,24,0.00,,,-99.99,FreeWX 2.04,2013-04-28 21:18:00,
2013-04-28 17:28:00,68.0,30.9,29.85,NNW,344,5.0,11.6,25,0.00,,,-99.99,FreeWX 2.04,2013-04-28 21:28:00,
2013-04-28 17:38:00,67.8,30.7,29.85,NNW,348,4.0,11.6,25,0.00,,,-99.99,FreeWX 2.04,2013-04-28 21:38:00,
2013-04-28 17:48:00,67.5,30.4,29.85,NNW,348,4.0,8.7,25,0.00,,,-99.99,FreeWX 2.04,2013-04-28 21:48:00,
2013-04-28 17:58:00,67.3,30.2,29.85,NNW,347,4.0,9.2,25,0.00,,,-99.99,FreeWX 2.04,2013-04-28 21:58:00,
2013-04-28 18:08:00,67.1,30.0,29.88,NNW,347,4.0,8.3,25,0.00,,,-99.99,FreeWX 2.04,2013-04-28 22:08:00,
2013-04-28 18:18:00,67.5,30.4,29.88,NNW,348,5.0,11.0,25,0.00,,,-99.99,FreeWX 2.04,2013-04-28 22:18:00,
2013-04-28 18:28:00,67.6,29.5,29.88,North,350,5.0,11.0,24,0.00,,,-99.99,FreeWX 2.04,2013-04-28 22:28:00,
2013-04-28 18:38:00,66.7,28.8,29.88,NNW,341,6.0,14.3,24,0.00,,,-99.99,FreeWX 2.04,2013-04-28 22:38:00,
2013-04-28 18:48:00,66.0,29.1,29.88,NNW,342,5.0,13.0,25,0.00,,,-99.99,FreeWX 2.04,2013-04-28 22:48:00,
2013-04-28 18:58:00,65.7,29.8,29.88,NNW,342,5.0,9.6,26,0.00,,,-99.99,FreeWX 2.04,2013-04-28 22:58:00,
2013-04-28 19:08:00,65.5,30.6,29.88,NNW,341,4.0,10.5,27,0.00,,,-99.99,FreeWX 2.04,2013-04-28 23:08:00,
2013-04-28 19:18:00,65.1,31.3,29.88,NNW,342,4.0,9.6,28,0.00,,,-99.99,FreeWX 2.04,2013-04-28 23:18:00,
2013-04-28 19:28:00,65.3,32.2,29.88,North,350,4.0,9.2,29,0.00,,,-99.99,FreeWX 2.04,2013-04-28 23:28:00,
2013-04-28 19:38:00,65.3,32.2,29.88,NNW,343,5.0,9.6,29,0.00,,,-99.99,FreeWX 2.04,2013-04-28 23:38:00,
2013-04-28 19:48:00,64.9,32.0,29.88,NNW,345,4.0,10.1,29,0.00,,,-99.99,FreeWX 2.04,2013-04-28 23:48:00,
2013-04-28 19:58:00,64.6,32.4,29.88,NNW,333,3.0,7.4,30,0.00,,,-99.99,FreeWX 2.04,2013-04-28 23:58:00,
2013-04-28 20:08:00,64.4,33.1,29.88,North,349,3.0,6.9,31,0.00,,,-99.99,FreeWX 2.04,2013-04-29 00:08:00,
2013-04-28 20:18:00,64.2,34.5,29.88,NNW,345,4.0,7.8,33,0.00,,,-99.99,FreeWX 2.04,2013-04-29 00:18:00,
2013-04-28 20:28:00,64.0,34.3,29.88,NNW,348,3.0,6.7,33,0.00,,,-99.99,FreeWX 2.04,2013-04-29 00:28:00,
2013-04-28 20:38:00,63.9,34.2,29.88,NNW,346,4.0,6.3,33,0.00,,,-99.99,FreeWX 2.04,2013-04-29 00:38:00,
2013-04-28 20:48:00,63.5,34.7,29.88,NNW,348,3.0,6.7,34,0.00,,,-99.99,FreeWX 2.04,2013-04-29 00:48:00,
2013-04-28 20:58:00,63.0,34.2,29.88,NNW,347,3.0,6.9,34,0.00,,,-99.99,FreeWX 2.04,2013-04-29 00:58:00,
2013-04-28 21:08:00,62.6,34.5,29.88,NNW,342,3.0,7.8,35,0.00,,,-99.99,FreeWX 2.04,2013-04-29 01:08:00,
2013-04-28 21:18:00,62.2,34.2,29.88,North,350,2.0,4.9,35,0.00,,,-99.99,FreeWX 2.04,2013-04-29 01:18:00,
2013-04-28 21:28:00,61.9,35.2,29.88,NNW,347,2.0,6.7,37,0.00,,,-99.99,FreeWX 2.04,2013-04-29 01:28:00,
2013-04-28 21:38:00,61.9,35.2,29.88,NNW,344,4.0,8.7,37,0.00,,,-99.99,FreeWX 2.04,2013-04-29 01:38:00,
2013-04-28 21:48:00,62.2,35.6,29.88,NNW,340,6.0,9.6,37,0.00,,,-99.99,FreeWX 2.04,2013-04-29 01:48:00,
2013-04-28 21:58:00,62.2,34.9,29.88,NNW,343,4.0,9.2,36,0.00,,,-99.99,FreeWX 2.04,2013-04-29 01:58:00,
2013-04-28 22:08:00,62.2,34.9,29.91,NNW,345,3.0,8.7,36,0.00,,,-99.99,FreeWX 2.04,2013-04-29 02:08:00,
2013-04-28 22:18:00,62.2,35.6,29.91,NNW,347,2.0,6.3,37,0.00,,,-99.99,FreeWX 2.04,2013-04-29 02:18:00,
2013-04-28 22:28:00,62.1,35.4,29.91,NNW,344,2.0,6.7,37,0.00,,,-99.99,FreeWX 2.04,2013-04-29 02:28:00,
2013-04-28 22:38:00,61.9,35.2,29.91,NNW,347,2.0,6.7,37,0.00,,,-99.99,FreeWX 2.04,2013-04-29 02:38:00,
2013-04-28 22:48:00,61.7,35.8,29.91,NNW,345,2.0,6.3,38,0.00,,,-99.99,FreeWX 2.04,2013-04-29 02:48:00,
2013-04-28 22:58:00,61.7,36.5,29.91,NNW,346,2.0,6.7,39,0.00,,,-99.99,FreeWX 2.04,2013-04-29 02:58:00,
2013-04-28 23:08:00,61.5,35.6,29.91,North,-999,0.0,5.8,38,0.00,,,-99.99,FreeWX 2.04,2013-04-29 03:08:00,
2013-04-28 23:18:00,61.3,36.1,29.91,North,-999,0.0,3.6,39,0.00,,,-99.99,FreeWX 2.04,2013-04-29 03:18:00,
2013-04-28 23:28:00,61.0,36.5,29.91,North,-999,0.0,4.9,40,0.00,,,-99.99,FreeWX 2.04,2013-04-29 03:28:00,
2013-04-28 23:38:00,61.0,36.5,29.91,North,-999,0.0,4.9,40,0.00,,,-99.99,FreeWX 2.04,2013-04-29 03:38:00,
2013-04-28 23:48:00,60.8,37.6,29.91,North,-999,0.0,0.0,42,0.00,,,-99.99,FreeWX 2.04,2013-04-29 03:48:00,
2013-04-28 23:58:00,60.6,37.4,29.91,North,-999,0.0,4.0,42,0.00,,,-99.99,FreeWX 2.04,2013-04-29 03:58:00,